Aérodrome :







RETROUVEZ-NOUS SUR...

 
LOGIN :

S'inscrire | Disclaimer

   EN    FR    IT 

 









Légende :    VFR   VFR Marginal   IFR   IFR Intensif   IFR Très Intensif
Visi : 
Plafond : 
>= 8 km
>= 3000ft
5 à 8 km
1000 à 3000 ft
1500m à 5 km
500 à 1000 ft
800 à 1500m
200 à 500 ft
< 800m
< 200 ft
Symboles :   Orages  Brouillard  Fortes neiges  Fortes précipitations  Vent > 20 kt






- Altitude de l'aérodrome : 108 ft
- Code IATA : YAY


CYAY - St Anthony

DERNIER METAR :
  • 261647Z AUTO 03011KT 9SM -SN BKN026 OVC032 M09/M13 A3005 RMK SLP180

METARs EXPIRÉS :
  • 261631Z AUTO 04012KT 9SM BKN026 OVC032 M09/M12 A3005 RMK SLP179
  • 261625Z AUTO 04011KT 6SM -SN BKN026 OVC032 M09/M12 A3005 RMK SLP180
  • 261612Z AUTO 04012KT 3SM -SN OVC028 M09/M12 A3005 RMK SLP180
  • 261552Z AUTO 03011KT 1 3/4SM -SN OVC026 M09/M12 A3005 RMK SLP181
  • 261500Z AUTO 03012KT 3SM -SN BKN026 OVC038 M09/M12 A3005 RMK SLP179
  • 261429Z AUTO 04013KT 3SM -SN OVC026 M09/M12 A3004 RMK SLP178
  • 261400Z AUTO 02011KT 4SM -SN OVC024 M09/M12 A3004 RMK SLP177

TAF TAF CYAY
Valide du 26 à 14h jusqu'au 27 à 02h UTC


261338Z 2614/2702 04010KT 6SM -SN SCT009 OVC030
TEMPO 2614/2620 5SM -SN OVC009
BECMG 2618/2620 VRB03KT
FM262000 VRB03KT P6SM -SN OVC020 RMK FCST BASED ON AUTO OBS. NXT FCST BY 262000Z



MET'MAP, la Météo Aéronautique d'un coup d'oeil ! - Copyright ORBIFLY Décembre 2007 - Disclaimer

ORBIFLY MET'MAP TEAM :

Programmation & Développement : Alexandra Zaïnal
Sur une idée originale de : Baudouin d'Aumeries
Assistance à la programmation : Marc-Olivier Méhu
Soutien technique & logistique : Manuel Goepfert

Contact : metmap@orbifly.com




SOURCES & CREDITS :

   NOAA